Apgar, Montana
Current Conditions -  °F | °C
As of 5:55 AM on Sunday 21 Dec 2014 (Local Time) from KGPI Reporting Station
Overcast Overcast  
Wind Chill: -1°   Ceiling: 2000
Heat Index:   Visibility: 10mi
Dew Point:   Wind: 8mph
Humidity: 97%   Direction: 180°S
Pressure: 29.44"   Gusts: NA
Location:  48.5033°N, 113.981°W
Report Text: KGPI 211255Z AUTO 18007KT 10SM SCT011 BKN020 OVC041 02/02 A2944 RMK AO2 RAE43 SLP987 P0000 T00220017 $
Loading
Personal Weather Stations






























Interactive Weather Map New forecast layout! Learn more

10-Day Weather Forecast

Advertisements
Track Severe Weather on mobile